createdAt,value
2022-11-01T00:01:42.338Z,187.20
2022-11-01T00:04:09.834Z,136.77
2022-11-01T00:06:37.437Z,255.43
2022-11-01T00:09:05.342Z,223.10
2022-11-01T00:11:32.940Z,257.30
2022-11-01T00:14:00.368Z,217.07
2022-11-01T00:16:28.136Z,65.43
2022-11-01T00:18:55.620Z,157.82
2022-11-01T00:21:23.158Z,414.30
2022-11-01T00:23:50.720Z,328.85
2022-11-01T00:26:20.623Z,256.23
2022-11-01T00:28:48.851Z,345.85
2022-11-01T00:31:32.094Z,331.60
2022-11-01T00:34:05.885Z,305.55
2022-11-01T00:36:34.271Z,226.40
2022-11-01T00:39:10.145Z,443.42
2022-11-01T00:41:38.309Z,257.33
2022-11-01T00:44:05.725Z,418.15
2022-11-01T00:46:35.075Z,257.42
2022-11-01T00:49:02.572Z,364.77
2022-11-01T00:51:29.953Z,387.40
2022-11-01T00:53:57.354Z,380.48
2022-11-01T00:56:24.666Z,255.50
2022-11-01T00:58:52.101Z,445.75
2022-11-01T01:01:19.615Z,163.15
2022-11-01T01:03:47.165Z,222.82
2022-11-01T01:06:14.598Z,434.20
2022-11-01T01:08:42.130Z,328.95
2022-11-01T01:11:09.543Z,226.02
2022-11-01T01:13:36.991Z,359.90
2022-11-01T01:16:10.101Z,331.33
2022-11-01T01:18:37.552Z,361.65
2022-11-01T01:21:06.434Z,234.63
2022-11-01T01:23:34.398Z,421.92
2022-11-01T01:26:09.296Z,395.23
2022-11-01T01:28:41.891Z,392.05
2022-11-01T01:31:13.677Z,294.50
2022-11-01T01:33:41.469Z,205.55
2022-11-01T01:36:08.865Z,434.83
2022-11-01T01:38:36.316Z,388.52
2022-11-01T01:41:22.298Z,415.88
2022-11-01T01:43:50.359Z,265.02
2022-11-01T01:46:17.973Z,128.60
2022-11-01T01:48:48.830Z,460.48
2022-11-01T01:51:19.915Z,447.45
2022-11-01T01:53:54.092Z,334.05
2022-11-01T01:56:26.907Z,266.17
2022-11-01T01:59:14.586Z,311.33
2022-11-01T02:01:43.522Z,391.55
2022-11-01T02:04:29.358Z,207.60
2022-11-01T02:06:58.370Z,385.50
2022-11-01T02:09:28.186Z,388.17
2022-11-01T02:11:59.810Z,441.90
2022-11-01T02:14:27.418Z,242.77
2022-11-01T02:17:14.726Z,414.77
2022-11-01T02:19:56.965Z,452.58
2022-11-01T02:22:39.411Z,395.10
2022-11-01T02:25:47.332Z,396.50
2022-11-01T02:28:23.542Z,400.98
2022-11-01T02:31:17.150Z,488.38
2022-11-01T02:34:25.327Z,435.92
2022-11-01T02:37:01.686Z,404.02
2022-11-01T02:39:38.323Z,290.92
2022-11-01T02:42:14.416Z,357.17
2022-11-01T02:44:53.520Z,405.95
2022-11-01T02:47:21.341Z,360.40
2022-11-01T02:49:54.385Z,303.55
2022-11-01T02:52:25.723Z,328.90
2022-11-01T02:54:57.756Z,346.05
2022-11-01T02:57:37.368Z,491.02
2022-11-01T03:00:24.449Z,378.60
2022-11-01T03:03:20.992Z,339.38
2022-11-01T03:05:54.527Z,354.30
2022-11-01T03:08:32.211Z,390.35
2022-11-01T03:11:18.392Z,352.38
2022-11-01T03:14:14.909Z,312.58
2022-11-01T03:17:03.831Z,245.13
2022-11-01T03:20:00.402Z,333.25
2022-11-01T03:22:54.035Z,359.50
2022-11-01T03:25:39.859Z,334.08
2022-11-01T03:28:15.388Z,321.35
2022-11-01T03:30:48.321Z,268.25
2022-11-01T03:33:17.092Z,344.40
2022-11-01T03:35:48.118Z,355.05
2022-11-01T03:38:19.567Z,320.02
2022-11-01T03:40:52.424Z,331.70
2022-11-01T03:43:22.694Z,384.88
2022-11-01T03:45:50.750Z,270.65
2022-11-01T03:48:18.240Z,295.20
2022-11-01T03:50:51.174Z,359.30
2022-11-01T03:53:19.024Z,390.83
2022-11-01T03:55:46.410Z,461.88
2022-11-01T03:58:14.039Z,344.95
2022-11-01T04:00:44.519Z,577.67
2022-11-01T04:03:12.757Z,456.23
2022-11-01T04:05:41.711Z,225.38
2022-11-01T04:08:11.323Z,375.80
2022-11-01T04:10:38.980Z,327.55
2022-11-01T04:13:06.394Z,231.00
2022-11-01T04:15:56.900Z,176.43
2022-11-01T04:18:43.694Z,260.83
2022-11-01T04:21:14.819Z,17.75
2022-11-01T04:23:43.899Z,51.70
2022-11-01T04:26:13.689Z,23.98
2022-11-01T04:28:41.231Z,16.08
2022-11-01T04:31:08.600Z,25.30
2022-11-01T04:33:35.985Z,41.70
2022-11-01T04:36:07.201Z,45.03
2022-11-01T04:38:34.712Z,118.43
2022-11-01T04:41:02.113Z,111.75
2022-11-01T04:43:29.447Z,373.98
2022-11-01T04:45:57.598Z,241.50
2022-11-01T04:48:26.460Z,63.22
2022-11-01T04:50:54.020Z,75.82
2022-11-01T04:53:21.398Z,366.52
2022-11-01T04:55:48.755Z,19.83
2022-11-01T04:58:16.027Z,213.50
2022-11-01T05:00:44.236Z,43.65
2022-11-01T05:03:12.313Z,15.43
2022-11-01T05:05:39.848Z,53.00
2022-11-01T05:08:09.745Z,19.48
2022-11-01T05:10:39.653Z,84.72
2022-11-01T05:13:07.402Z,17.38
2022-11-01T05:15:40.177Z,14.02
2022-11-01T05:18:15.697Z,8.60
2022-11-01T05:20:43.203Z,12.00
2022-11-01T05:23:10.634Z,11.80
2022-11-01T05:25:38.480Z,8.93
2022-11-01T05:28:08.800Z,14.60
2022-11-01T05:30:37.278Z,16.27
2022-11-01T05:33:06.613Z,10.02
2022-11-01T05:35:36.062Z,11.60
2022-11-01T05:38:05.237Z,10.23
2022-11-01T05:40:33.363Z,8.63
2022-11-01T05:43:01.553Z,7.28
2022-11-01T05:45:29.288Z,7.35
2022-11-01T05:48:01.657Z,7.93
2022-11-01T05:50:29.036Z,9.02
2022-11-01T05:52:56.497Z,11.45
2022-11-01T05:55:23.860Z,7.90
2022-11-01T05:57:58.637Z,7.35
2022-11-01T06:00:25.976Z,3.95
2022-11-01T06:02:53.307Z,9.75
2022-11-01T06:05:20.790Z,7.05
2022-11-01T06:07:48.127Z,9.63
2022-11-01T06:10:15.639Z,7.03
2022-11-01T06:12:42.996Z,9.70
2022-11-01T06:15:10.857Z,7.30
2022-11-01T06:17:38.246Z,7.20
2022-11-01T06:20:06.567Z,9.50
2022-11-01T06:22:36.417Z,7.47
2022-11-01T06:25:05.556Z,8.00
2022-11-01T06:27:33.541Z,10.32
2022-11-01T06:30:01.020Z,7.85
2022-11-01T06:32:28.583Z,9.60
2022-11-01T06:34:55.961Z,7.50
2022-11-01T06:37:23.460Z,8.75
2022-11-01T06:39:51.000Z,8.95
2022-11-01T06:42:18.568Z,8.43
2022-11-01T06:44:46.031Z,10.30
2022-11-01T06:47:13.777Z,7.75
2022-11-01T06:49:41.466Z,8.85
2022-11-01T06:52:09.166Z,8.45
2022-11-01T06:54:36.540Z,9.98
2022-11-01T06:57:04.091Z,9.93
2022-11-01T06:59:31.584Z,9.25
2022-11-01T07:01:59.404Z,10.77
2022-11-01T07:04:29.202Z,9.85
2022-11-01T07:06:56.700Z,10.30
2022-11-01T07:09:24.256Z,11.57
2022-11-01T07:11:51.634Z,12.85
2022-11-01T07:14:19.022Z,11.45
2022-11-01T07:16:46.395Z,9.80
2022-11-01T07:19:13.769Z,11.60
2022-11-01T07:21:41.196Z,12.50
2022-11-01T07:24:08.616Z,10.52
2022-11-01T07:26:36.024Z,13.05
2022-11-01T07:29:03.482Z,11.13
2022-11-01T07:31:33.509Z,12.43
2022-11-01T07:34:00.971Z,12.82
2022-11-01T07:36:28.386Z,12.75
2022-11-01T07:38:55.702Z,14.95
2022-11-01T07:41:23.091Z,11.18
2022-11-01T07:43:50.495Z,11.77
2022-11-01T07:46:17.890Z,12.82
2022-11-01T07:48:45.344Z,14.98
2022-11-01T07:51:12.731Z,12.70
2022-11-01T07:53:40.163Z,11.05
2022-11-01T07:56:08.246Z,13.38
2022-11-01T07:58:35.715Z,12.57
2022-11-01T08:01:03.229Z,12.07
2022-11-01T08:03:31.175Z,13.07
2022-11-01T08:05:58.517Z,12.35
2022-11-01T08:08:25.947Z,17.42
2022-11-01T08:10:53.379Z,12.98
2022-11-01T08:13:23.141Z,14.27
2022-11-01T08:15:52.466Z,14.40
2022-11-01T08:18:22.684Z,20.13
2022-11-01T08:20:50.795Z,14.10
2022-11-01T08:23:18.370Z,13.95
2022-11-01T08:25:46.020Z,14.50
2022-11-01T08:28:16.594Z,13.95
2022-11-01T08:30:45.471Z,15.32
2022-11-01T08:33:12.948Z,12.07
2022-11-01T08:35:41.877Z,14.23
2022-11-01T08:38:11.177Z,14.70
2022-11-01T08:40:38.514Z,14.70
2022-11-01T08:43:06.524Z,15.93
2022-11-01T08:45:34.145Z,14.88
2022-11-01T08:48:03.769Z,16.42
2022-11-01T08:50:34.097Z,13.73
2022-11-01T08:53:09.141Z,13.85
2022-11-01T08:55:38.113Z,13.55
2022-11-01T08:58:06.906Z,14.65
2022-11-01T09:00:35.496Z,13.43
2022-11-01T09:03:03.040Z,16.27
2022-11-01T09:05:31.704Z,13.85
2022-11-01T09:08:00.960Z,15.38
2022-11-01T09:10:31.187Z,13.98
2022-11-01T09:13:00.828Z,17.20
2022-11-01T09:15:28.673Z,18.17
2022-11-01T09:17:56.166Z,15.98
2022-11-01T09:20:24.404Z,15.98
2022-11-01T09:22:55.043Z,14.63
2022-11-01T09:25:22.511Z,15.20
2022-11-01T09:27:50.032Z,15.25
2022-11-01T09:30:17.636Z,17.52
2022-11-01T09:32:45.208Z,20.27
2022-11-01T09:35:12.867Z,19.65
2022-11-01T09:37:40.385Z,18.65
2022-11-01T09:40:09.978Z,17.52
2022-11-01T09:42:42.299Z,18.88
2022-11-01T09:45:18.731Z,14.70
2022-11-01T09:47:51.362Z,19.45
2022-11-01T09:50:18.817Z,17.52
2022-11-01T09:52:46.528Z,19.70
2022-11-01T09:55:17.441Z,19.25
2022-11-01T09:57:54.338Z,18.55
2022-11-01T10:00:22.658Z,19.00
2022-11-01T10:03:18.097Z,21.55
2022-11-01T10:06:16.568Z,18.00
2022-11-01T10:09:06.130Z,18.55
2022-11-01T10:11:52.714Z,20.20
2022-11-01T10:14:54.882Z,24.50
2022-11-01T10:17:51.720Z,22.77
2022-11-01T10:20:30.638Z,19.95
2022-11-01T10:22:59.885Z,20.67
2022-11-01T10:25:37.481Z,23.48
2022-11-01T10:28:21.236Z,18.75
2022-11-01T10:30:58.777Z,21.13
2022-11-01T10:33:35.410Z,23.55
2022-11-01T10:36:10.603Z,21.70
2022-11-01T10:41:52.597Z,23.67
2022-11-01T10:44:33.942Z,23.88
2022-11-01T10:47:07.347Z,22.60
2022-11-01T10:50:04.275Z,20.55
2022-11-01T10:52:46.808Z,22.33
2022-11-01T10:55:20.074Z,25.95
2022-11-01T10:58:07.117Z,21.27
2022-11-01T11:00:38.365Z,25.00
2022-11-01T11:03:35.399Z,20.52
2022-11-01T11:06:10.526Z,27.30
2022-11-01T11:08:41.604Z,23.45
2022-11-01T11:11:18.083Z,21.73
2022-11-01T11:13:54.093Z,20.02
2022-11-01T11:16:31.902Z,20.15
2022-11-01T11:19:08.472Z,18.73
2022-11-01T11:21:36.176Z,20.80
2022-11-01T11:24:05.408Z,20.00
2022-11-01T11:26:39.320Z,23.73
2022-11-01T11:29:07.030Z,26.05
2022-11-01T11:31:35.283Z,18.88
2022-11-01T11:34:27.553Z,21.73
2022-11-01T11:36:56.031Z,18.73
2022-11-01T11:39:30.733Z,18.17
2022-11-01T11:42:16.935Z,23.40
2022-11-01T11:44:45.981Z,15.05
2022-11-01T11:47:19.423Z,18.52
2022-11-01T11:49:48.299Z,11.82
2022-11-01T11:52:18.853Z,14.23
2022-11-01T11:54:47.112Z,12.18
2022-11-01T11:57:27.490Z,12.88
2022-11-01T11:59:58.944Z,9.48
2022-11-01T12:02:48.275Z,11.90
2022-11-01T12:05:18.848Z,8.35
2022-11-01T12:07:53.255Z,8.20
2022-11-01T12:10:45.807Z,7.88
2022-11-01T12:13:27.601Z,6.97
2022-11-01T12:16:09.442Z,8.80
2022-11-01T12:18:47.375Z,7.38
2022-11-01T12:21:19.182Z,8.85
2022-11-01T12:23:49.711Z,9.93
2022-11-01T12:26:21.206Z,7.93
2022-11-01T12:29:17.455Z,11.07
2022-11-01T12:31:45.907Z,6.85
2022-11-01T12:34:31.466Z,10.32
2022-11-01T12:37:14.479Z,8.43
2022-11-01T12:40:07.749Z,6.15
2022-11-01T12:42:41.752Z,7.50
2022-11-01T12:45:55.455Z,5.95
2022-11-01T12:48:37.378Z,4.15
2022-11-01T12:51:49.048Z,3.83
2022-11-01T12:54:32.328Z,2.85
2022-11-01T12:57:00.153Z,3.72
2022-11-01T12:59:34.648Z,4.65
2022-11-01T13:02:23.551Z,3.78
2022-11-01T13:04:57.664Z,2.55
2022-11-01T13:07:43.856Z,2.72
2022-11-01T13:10:33.516Z,4.80
2022-11-01T13:13:19.610Z,3.08
2022-11-01T13:16:13.262Z,4.70
2022-11-01T13:18:44.801Z,3.30
2022-11-01T13:21:32.467Z,4.20
2022-11-01T13:24:15.068Z,3.95
2022-11-01T13:26:55.057Z,3.90
2022-11-01T13:29:52.867Z,3.00
2022-11-01T13:32:51.133Z,2.95
2022-11-01T13:35:34.947Z,4.18
2022-11-01T13:38:29.046Z,5.65
2022-11-01T13:41:08.965Z,3.92
2022-11-01T13:43:44.027Z,5.18
2022-11-01T13:46:25.324Z,4.50
2022-11-01T13:49:11.180Z,3.47
2022-11-01T13:52:07.488Z,5.32
2022-11-01T13:54:47.632Z,5.03
2022-11-01T13:57:18.743Z,5.50
2022-11-01T13:59:54.368Z,4.13
2022-11-01T14:02:28.115Z,4.28
2022-11-01T14:07:24.460Z,4.28
2022-11-01T14:09:55.513Z,3.50
2022-11-01T14:12:46.643Z,3.53
2022-11-01T14:15:21.212Z,3.28
2022-11-01T14:17:57.976Z,4.07
2022-11-01T14:20:28.593Z,4.38
2022-11-01T14:22:57.831Z,4.82
2022-11-01T14:25:30.538Z,4.40
2022-11-01T14:28:17.623Z,3.15
2022-11-01T14:30:47.928Z,4.72
2022-11-01T14:33:20.667Z,3.97
2022-11-01T14:35:55.688Z,3.95
2022-11-01T14:38:46.291Z,5.82
2022-11-01T14:41:15.868Z,4.25
2022-11-01T14:43:53.827Z,3.83
2022-11-01T14:46:24.761Z,3.58
2022-11-01T14:49:05.121Z,3.35
2022-11-01T14:51:37.571Z,3.75
2022-11-01T14:54:21.719Z,2.83
2022-11-01T14:56:55.208Z,2.25
2022-11-01T14:59:34.631Z,3.80
2022-11-01T15:02:05.489Z,3.15
2022-11-01T15:04:40.835Z,3.20
2022-11-01T15:07:30.898Z,5.28
2022-11-01T15:10:19.616Z,3.63
2022-11-01T15:12:54.640Z,4.18
2022-11-01T15:15:25.112Z,3.25
2022-11-01T15:18:07.537Z,3.30
2022-11-01T15:20:41.605Z,3.47
2022-11-01T15:23:15.590Z,4.82
2022-11-01T15:25:44.630Z,3.85
2022-11-01T15:28:22.956Z,5.00
2022-11-01T15:31:01.442Z,3.88
2022-11-01T15:33:33.035Z,4.88
2022-11-01T15:36:05.640Z,4.18
2022-11-01T15:38:49.982Z,5.45
2022-11-01T15:41:36.146Z,3.47
2022-11-01T15:44:06.524Z,3.90
2022-11-01T15:46:38.872Z,3.95
2022-11-01T15:49:14.953Z,4.97
2022-11-01T15:51:49.320Z,4.63
2022-11-01T15:54:47.908Z,3.22
2022-11-01T15:57:36.176Z,3.15
2022-11-01T16:00:18.753Z,4.50
2022-11-01T16:03:00.720Z,5.03
2022-11-01T16:05:34.023Z,3.67
2022-11-01T16:08:02.111Z,3.90
2022-11-01T16:10:30.724Z,7.18
2022-11-01T16:13:01.481Z,4.20
2022-11-01T16:15:34.824Z,4.95
2022-11-01T16:18:16.303Z,3.80
2022-11-01T16:20:47.521Z,3.67
2022-11-01T16:23:29.928Z,3.67
2022-11-01T16:26:07.330Z,4.55
2022-11-01T16:28:40.155Z,4.35
2022-11-01T16:31:31.075Z,3.45
2022-11-01T16:34:01.335Z,4.13
2022-11-01T16:36:31.657Z,4.07
2022-11-01T16:38:59.204Z,3.75
2022-11-01T16:41:37.859Z,3.13
2022-11-01T16:44:16.277Z,3.75
2022-11-01T16:46:44.599Z,4.15
2022-11-01T16:49:21.422Z,2.97
2022-11-01T16:51:49.183Z,2.70
2022-11-01T16:54:18.165Z,3.13
2022-11-01T16:56:55.402Z,3.53
2022-11-01T16:59:38.297Z,2.72
2022-11-01T17:02:17.339Z,2.78
2022-11-01T17:04:48.583Z,2.33
2022-11-01T17:07:20.104Z,3.33
2022-11-01T17:09:48.216Z,3.30
2022-11-01T17:12:15.741Z,3.17
2022-11-01T17:14:43.490Z,3.22
2022-11-01T17:17:24.700Z,3.85
2022-11-01T17:19:59.889Z,3.95
2022-11-01T17:22:35.010Z,2.63
2022-11-01T17:25:06.482Z,2.63
2022-11-01T17:27:34.520Z,3.15
2022-11-01T17:30:02.165Z,4.47
2022-11-01T17:32:30.908Z,3.65
2022-11-01T17:34:58.375Z,3.85
2022-11-01T17:37:27.083Z,4.55
2022-11-01T17:39:54.457Z,4.13
2022-11-01T17:42:22.313Z,4.03
2022-11-01T17:44:50.140Z,5.90
2022-11-01T17:47:17.941Z,5.10
2022-11-01T17:49:45.483Z,3.15
2022-11-01T17:52:19.273Z,3.47
2022-11-01T17:54:52.390Z,2.53
2022-11-01T17:57:23.029Z,3.08
2022-11-01T17:59:51.136Z,3.42
2022-11-01T18:02:20.935Z,4.25
2022-11-01T18:04:48.856Z,4.40
2022-11-01T18:07:17.288Z,5.53
2022-11-01T18:09:45.368Z,5.07
2022-11-01T18:12:22.920Z,3.83
2022-11-01T18:14:56.544Z,4.20
2022-11-01T18:17:46.620Z,6.05
2022-11-01T18:20:25.056Z,3.15
2022-11-01T18:23:03.766Z,3.88
2022-11-01T18:25:52.975Z,3.35
2022-11-01T18:28:26.656Z,2.92
2022-11-01T18:31:01.098Z,3.05
2022-11-01T18:33:38.613Z,2.47
2022-11-01T18:36:21.730Z,2.13
2022-11-01T18:39:26.214Z,2.28
2022-11-01T18:41:53.904Z,1.90
2022-11-01T18:44:21.442Z,2.67
2022-11-01T18:47:10.306Z,1.85
2022-11-01T18:49:37.676Z,2.70
2022-11-01T18:52:11.900Z,3.72
2022-11-01T18:54:56.093Z,3.17
2022-11-01T18:57:24.970Z,2.42
2022-11-01T18:59:53.744Z,2.10
2022-11-01T19:02:23.882Z,2.80
2022-11-01T19:04:53.147Z,2.38
2022-11-01T19:07:22.881Z,2.38
2022-11-01T19:09:56.037Z,2.10
2022-11-01T19:12:46.185Z,3.13
2022-11-01T19:15:16.688Z,2.88
2022-11-01T19:17:45.201Z,2.90
2022-11-01T19:20:31.399Z,2.72
2022-11-01T19:23:01.995Z,2.67
2022-11-01T19:25:33.448Z,3.22
2022-11-01T19:28:27.676Z,4.20
2022-11-01T19:30:57.873Z,4.72
2022-11-01T19:33:34.506Z,2.65
2022-11-01T19:36:05.661Z,4.93
2022-11-01T19:38:33.950Z,3.88
2022-11-01T19:41:01.557Z,2.83
2022-11-01T19:43:29.057Z,4.60
2022-11-01T19:45:58.283Z,3.42
2022-11-01T19:48:32.513Z,3.85
2022-11-01T19:51:00.941Z,2.60
2022-11-01T19:53:29.829Z,3.05
2022-11-01T19:56:10.254Z,3.65
2022-11-01T19:58:45.738Z,3.22
2022-11-01T20:01:25.816Z,3.03
2022-11-01T20:03:58.703Z,2.38
2022-11-01T20:06:32.926Z,2.85
2022-11-01T20:09:13.841Z,3.30
2022-11-01T20:11:41.622Z,2.72
2022-11-01T20:14:09.860Z,3.92
2022-11-01T20:16:37.367Z,4.93
2022-11-01T20:19:04.716Z,4.15
2022-11-01T20:21:32.270Z,3.20
2022-11-01T20:24:00.235Z,4.05
2022-11-01T20:26:27.748Z,4.97
2022-11-01T20:28:55.293Z,4.20
2022-11-01T20:31:22.913Z,5.53
2022-11-01T20:33:51.257Z,5.43
2022-11-01T20:36:18.812Z,7.20
2022-11-01T20:38:46.434Z,5.80
2022-11-01T20:41:13.979Z,6.55
2022-11-01T20:43:41.495Z,6.72
2022-11-01T20:46:08.961Z,14.20
2022-11-01T20:48:36.684Z,9.05
2022-11-01T20:51:04.660Z,11.55
2022-11-01T20:53:32.702Z,7.18
2022-11-01T20:56:00.844Z,6.55
2022-11-01T20:58:28.633Z,8.05
2022-11-01T21:00:56.638Z,6.22
2022-11-01T21:03:27.510Z,8.63
2022-11-01T21:05:54.994Z,9.85
2022-11-01T21:08:27.055Z,9.55
2022-11-01T21:10:57.849Z,10.73
2022-11-01T21:13:47.429Z,9.80
2022-11-01T21:16:22.973Z,10.48
2022-11-01T21:18:54.119Z,9.50
2022-11-01T21:21:21.552Z,9.57
2022-11-01T21:23:48.991Z,6.53
2022-11-01T21:26:32.083Z,9.13
2022-11-01T21:29:05.323Z,10.15
2022-11-01T21:31:34.845Z,8.10
2022-11-01T21:34:11.330Z,6.47
2022-11-01T21:36:48.843Z,8.48
2022-11-01T21:39:21.255Z,8.20
2022-11-01T21:41:57.085Z,10.35
2022-11-01T21:44:45.721Z,10.23
2022-11-01T21:47:33.201Z,8.95
2022-11-01T21:50:00.554Z,9.57
2022-11-01T21:52:28.324Z,9.07
2022-11-01T21:54:55.680Z,10.68
2022-11-01T21:57:23.207Z,10.95
2022-11-01T21:59:52.090Z,10.10
2022-11-01T22:02:19.540Z,10.65
2022-11-01T22:04:47.102Z,10.27
2022-11-01T22:07:14.981Z,9.02
2022-11-01T22:09:42.424Z,11.88
2022-11-01T22:12:10.017Z,7.80
2022-11-01T22:14:37.778Z,9.68
2022-11-01T22:17:05.175Z,12.65
2022-11-01T22:19:32.570Z,10.55
2022-11-01T22:22:00.132Z,12.18
2022-11-01T22:24:28.692Z,8.38
2022-11-01T22:26:56.117Z,10.23
2022-11-01T22:29:23.471Z,14.82
2022-11-01T22:31:50.955Z,14.73
2022-11-01T22:34:18.434Z,8.65
2022-11-01T22:36:45.825Z,8.82
2022-11-01T22:39:28.049Z,12.00
2022-11-01T22:41:55.533Z,13.95
2022-11-01T22:44:30.949Z,10.40
2022-11-01T22:47:03.219Z,14.93
2022-11-01T22:49:53.830Z,17.48
2022-11-01T22:52:41.476Z,12.25
2022-11-01T22:55:11.988Z,14.43
2022-11-01T22:58:21.745Z,12.15
2022-11-01T23:00:50.750Z,14.70
2022-11-01T23:03:24.230Z,10.85
2022-11-01T23:05:54.780Z,9.95
2022-11-01T23:08:30.561Z,12.40
2022-11-01T23:10:59.504Z,11.02
2022-11-01T23:13:51.408Z,11.05
2022-11-01T23:16:38.725Z,10.00
2022-11-01T23:19:13.734Z,7.20
2022-11-01T23:21:41.234Z,7.97
2022-11-01T23:24:08.879Z,9.13
2022-11-01T23:26:36.348Z,6.55
2022-11-01T23:29:03.707Z,7.72
2022-11-01T23:31:31.078Z,7.00
2022-11-01T23:33:58.589Z,10.32
2022-11-01T23:36:30.646Z,7.63
2022-11-01T23:41:36.446Z,7.68
2022-11-01T23:44:18.869Z,8.05
2022-11-01T23:46:46.518Z,8.98
2022-11-01T23:49:25.474Z,6.72
2022-11-01T23:51:53.064Z,5.18
2022-11-01T23:54:26.130Z,8.90
2022-11-01T23:56:55.916Z,6.43
2022-11-01T23:59:23.295Z,8.18
